HST,Max TemperatureF,Mean TemperatureF,Min TemperatureF,Max Dew PointF,MeanDew PointF,Min DewpointF,Max Humidity, Mean Humidity, Min Humidity, Max Sea Level PressureIn, Mean Sea Level PressureIn, Min Sea Level PressureIn, Max VisibilityMiles, Mean VisibilityMiles, Min VisibilityMiles, Max Wind SpeedMPH, Mean Wind SpeedMPH, Max Gust SpeedMPH,PrecipitationIn, CloudCover, Events, WindDirDegrees
2013-9-1,83,75,67,69,64,58,93,74,55,30.05,30.01,29.96,10,10,6,17,7,19,0.03,5,Rain,212
2013-9-2,85,77,68,71,64,56,78,65,51,30.04,30.01,29.96,10,10,10,17,8,21,T,5,Rain,163
2013-9-3,86,77,68,67,63,57,90,67,43,30.03,29.99,29.95,10,10,3,13,7,19,0.07,3,Rain,289
2013-9-4,86,77,67,69,61,49,84,64,44,30.05,30.00,29.96,10,10,10,15,8,21,0.04,3,Rain,223
2013-9-5,87,76,65,67,63,54,87,66,45,30.10,30.04,30.00,10,10,10,15,8,20,0.00,3,,195
2013-9-6,86,78,69,71,65,58,84,70,55,30.08,30.05,30.01,10,10,8,14,7,19,T,4,Rain,322
2013-9-7,88,80,71,72,69,65,93,72,50,30.06,30.03,29.98,10,9,3,13,6,19,0.05,6,Rain,265
2013-9-8,86,80,74,72,69,62,93,74,55,30.10,30.05,30.01,10,10,10,18,5,25,0.04,5,Rain,205
2013-9-9,86,77,68,68,64,60,79,67,55,30.09,30.05,30.01,10,10,3,12,8,,0.10,4,Rain,236
2013-9-10,87,78,68,69,65,58,81,68,55,30.08,30.04,29.99,10,10,10,12,7,17,T,2,,298
2013-9-11,87,78,69,69,66,60,78,67,55,30.09,30.03,29.99,10,10,7,13,7,18,T,1,Rain,288
2013-9-12,86,78,70,71,67,62,78,68,57,30.01,29.97,29.92,10,10,10,14,8,,0.00,4,,293
2013-9-13,88,80,72,71,68,65,87,69,50,29.97,29.92,29.86,10,10,3,13,5,16,0.07,5,Rain,284
2013-9-14,87,79,70,72,69,64,90,73,55,29.97,29.91,29.86,10,10,5,14,7,17,0.02,6,Rain,226
2013-9-15,87,78,69,70,66,61,87,69,51,30.02,29.97,29.92,10,10,3,17,7,20,T,5,Rain,221
2013-9-16,87,78,69,69,66,62,84,66,48,30.06,30.02,29.98,10,10,10,14,7,17,0.05,5,,356
2013-9-17,86,79,72,70,68,65,93,74,55,30.04,30.01,29.97,10,9,2,13,6,17,0.30,6,Rain,245
2013-9-18,86,77,68,68,66,61,84,66,48,30.03,29.99,29.96,10,10,10,15,8,21,0.01,4,Rain,197
2013-9-19,85,78,71,70,67,63,84,70,55,30.06,30.01,29.96,10,10,6,15,7,19,0.06,5,Rain,244
2013-9-20,85,78,70,68,66,63,90,71,51,30.08,30.03,29.99,10,9,2,16,6,19,0.21,6,Rain,263
2013-9-21,84,77,69,69,66,63,90,74,58,30.06,30.02,29.98,10,10,4,16,7,19,0.04,7,Rain,217
2013-9-22,86,78,69,68,65,61,84,68,51,30.04,30.01,29.96,10,10,9,17,7,24,0.08,5,Rain,233
2013-9-23,87,79,70,69,66,63,79,62,45,30.03,29.99,29.94,10,10,7,13,6,16,T,5,Rain,308
2013-9-24,84,77,69,68,66,63,90,69,48,30.04,29.99,29.94,10,9,2,14,6,17,T,6,Rain,208
2013-9-25,86,78,70,69,66,62,90,73,55,30.06,30.01,29.97,10,10,10,22,6,27,0.01,6,Rain,231
2013-9-26,86,78,70,70,66,62,84,66,48,30.04,30.00,29.94,10,10,2,16,7,20,0.09,6,Rain,193
2013-9-27,86,79,71,68,65,60,79,65,51,30.10,30.04,29.99,10,10,10,15,8,18,0.00,6,,197
2013-9-28,83,76,69,72,68,62,90,74,58,30.12,30.07,30.01,10,9,2,17,6,22,0.13,7,Rain,263
2013-9-29,84,77,69,73,69,64,97,83,69,30.07,30.03,29.96,10,8,2,20,6,24,0.41,7,Rain,245
2013-9-30,83,77,70,74,69,65,93,76,58,30.06,30.01,29.96,10,9,4,16,6,19,0.03,7,Rain,206